Coleraine, MN (55722)

3:31 AM CDT on July 28, 2014 (GMT -0500)
Grand Rapids-Itasca County-Newstrom Field (KGPZ) Elev 1355 ft | 47.21 °N, 93.51 °W | Change Station

Current weather conditions updated 16 minutes ago

Overcast
Overcast
57 °F
Feels Like 57 °F
N
5
Wind Variable Wind from NNW

Today is forecast to be Warmer than yesterday.

Today
High -- | Low -- °F
--% Chance of Precip.
Yesterday
High -- | Low -- °F
Precip. -- in
5:47 AM 8:52 PM
New Moon, 2% visible
Pressure 30.17 in
Visibility 10.0 miles
Clouds Overcast 6000 ft
Dew Point 54 °F
Humidity 88%
Rainfall 0.00 in
Snow Depth Not available.
UV 0 out of 12
Pollen 6.80 out of 12
Air Quality Not available.
Flu Activity Not available.
METAR KGPZ 280815Z AUTO 34004KT 10SM OVC060 14/12 A3017 RMK AO1

More Conditions Fewer Conditions

Pressure 30.17 in
Visibility 10.0 miles
Clouds Overcast 6000 ft
Dew Point 54 °F
Humidity 88%
Rainfall 0.00 in
Snow Depth Not available.
UV 0 out of 12
Pollen 6.80 out of 12
Air Quality Not available.
Flu Activity Not available.
METAR KGPZ 280815Z AUTO 34004KT 10SM OVC060 14/12 A3017 RMK AO1

More Conditions Fewer Conditions

10-Day Weather Forecast

Almanac

Astronomy

Jul. 28, 2014 Rise Set
Actual Time 5:47 AM CDT 8:52 PM CDT
Civil Twilight 5:10 AM CDT 9:28 PM CDT
Nautical Twilight 4:23 AM CDT 10:15 PM CDT
Astronomical Twilight 3:25 AM CDT 11:12 PM CDT
Moon 7:40 AM CDT 9:21 PM CDT
Length of Visible Light 16h 17m
Length of Day
15h 05m
Tomorrow will be 2m 30s shorter.
New Moon, 2% of the Moon is Illuminated
Today
New Moon
Aug 3
First Quarter
Aug 10
Full
Aug 17
Last Quarter
Aug 25
New

Today's Extremes

State Highs State Lows

Community

WunderPhotos

Upload Photos

1,738,294 photos uploaded!

Nearby

Snow Depth

Station Depth Elevation
No new snow has been reported.

Earthquake Activity

City Distance Mag. Time & Date
No recent earthquake activity has been reported nearby.
Minimum magnitude displayed is 2.5.

Coastal Water Temperatures

Place Temperature
No Stations Reporting

Nearby Weather Stations

Station Location Temp. Dew Point Humidity Wind Precip. Elev Updated Type
Southwest, Grand Rapids, MN 60.3 °F 58 °F 91% SW  at  0.0 mph 0.00 in / hr 1322 ft 3:31 AM CDT Normal
Near Hwy 63, Cohasset, MN 58.9 °F 54 °F 83% West  at  0.0 mph 0.00 in / hr 1305 ft 3:27 AM CDT Normal
On Bass Lake, Cohasset, MN 58.2 °F 56 °F 91% WSW  at  0.0 mph 0.00 in / hr 1273 ft 3:17 AM CDT Normal
Ye old Homestead, Deer River, MN 56.8 °F 54 °F 91% NNW  at  0.0 mph - / hr 1339 ft 3:18 AM CDT Normal
Long Lake 59-24, Bigfork, MN 56.1 °F 54 °F 94% NNE  at  0.0 mph 0.00 in / hr 1381 ft 3:31 AM CDT Rapid Fire
Gus' Place Resort, Deer River, MN 60.3 °F 57 °F 88% WNW  at  1.7 mph - / hr 1283 ft 3:19 AM CDT Normal

Show More Stations Show Fewer Stations